Time;durP1;ratioP1;P1;durP2;ratioP2;P2;SDS_P1;SDS_P2;PMS_P1;PMS_P2;Temp;Humidity;BMP_temperature;BMP_pressure;BME280_temperature;BME280_humidity;BME280_pressure;Samples;Min_cycle;Max_cycle;Signal;HPM_P1;HPM_P2
2021/09/09 00:00:58;;;;;;;22.97;21.47;;;17.20;99.90;;;;;;5054256;28;20470;-67
2021/09/09 00:03:25;;;;;;;22.73;21.23;;;17.20;99.90;;;;;;5054705;28;20832;-64
2021/09/09 00:05:52;;;;;;;23.40;21.50;;;17.20;99.90;;;;;;5054711;28;20451;-66
2021/09/09 00:08:18;;;;;;;21.60;19.97;;;17.20;99.90;;;;;;5054879;28;20448;-66
2021/09/09 00:10:47;;;;;;;22.60;21.00;;;17.10;99.90;;;;;;5054246;28;20483;-65
2021/09/09 00:13:13;;;;;;;23.93;22.33;;;17.10;99.90;;;;;;5054295;28;20499;-64
2021/09/09 00:15:40;;;;;;;22.40;20.80;;;17.00;99.90;;;;;;5054607;28;20444;-67
2021/09/09 00:18:07;;;;;;;22.53;21.03;;;17.00;99.90;;;;;;5054584;28;20448;-65
2021/09/09 00:20:34;;;;;;;21.93;20.23;;;17.00;99.90;;;;;;5053999;28;20945;-65
2021/09/09 00:23:01;;;;;;;23.40;21.77;;;17.00;99.90;;;;;;5054169;28;20459;-66
2021/09/09 00:25:27;;;;;;;22.30;20.83;;;17.00;99.90;;;;;;5054416;28;20925;-66
2021/09/09 00:27:55;;;;;;;22.20;20.80;;;16.90;99.90;;;;;;5054187;28;20451;-66
2021/09/09 00:30:22;;;;;;;22.50;20.90;;;16.90;99.90;;;;;;5054353;28;21069;-66
2021/09/09 00:32:49;;;;;;;21.20;19.50;;;16.90;99.90;;;;;;5053815;28;20479;-67
2021/09/09 00:35:15;;;;;;;23.77;22.03;;;16.90;99.90;;;;;;5054272;28;20921;-67
2021/09/09 00:37:42;;;;;;;22.80;20.50;;;17.00;99.90;;;;;;5053934;28;20527;-67
2021/09/09 00:40:10;;;;;;;23.27;20.97;;;17.10;99.90;;;;;;5054065;28;20817;-65
2021/09/09 00:42:37;;;;;;;21.80;20.30;;;17.10;99.90;;;;;;5053734;28;20460;-66
2021/09/09 00:45:06;;;;;;;21.80;20.20;;;17.20;99.90;;;;;;5054090;28;20448;-65
2021/09/09 00:47:32;;;;;;;21.20;19.77;;;17.30;99.90;;;;;;5054010;28;20448;-65
2021/09/09 00:49:59;;;;;;;22.17;20.30;;;17.30;99.90;;;;;;5054043;28;20447;-65
2021/09/09 00:52:26;;;;;;;20.93;19.53;;;17.30;99.90;;;;;;5053594;28;20480;-66
2021/09/09 00:54:53;;;;;;;20.40;19.20;;;17.30;99.90;;;;;;5052671;28;20797;-67
2021/09/09 00:57:19;;;;;;;21.30;20.00;;;17.40;99.90;;;;;;5053686;28;20436;-64
2021/09/09 00:59:47;;;;;;;21.90;20.40;;;17.40;99.90;;;;;;5053807;28;20450;-66
2021/09/09 01:02:15;;;;;;;21.70;20.10;;;17.40;99.90;;;;;;5053472;28;20543;-66
2021/09/09 01:04:42;;;;;;;20.97;19.47;;;17.50;99.90;;;;;;5053698;28;20466;-66
2021/09/09 01:07:10;;;;;;;22.47;20.97;;;17.50;99.90;;;;;;5053564;28;20452;-66
2021/09/09 01:09:37;;;;;;;20.27;18.83;;;17.60;99.90;;;;;;5042557;28;20444;-66
2021/09/09 01:12:04;;;;;;;20.23;18.93;;;17.60;99.90;;;;;;5053133;28;20495;-65
2021/09/09 01:14:31;;;;;;;21.40;19.93;;;17.60;99.90;;;;;;5037282;28;20456;-66
2021/09/09 01:16:57;;;;;;;19.93;18.73;;;17.60;99.90;;;;;;5033371;28;20440;-67
2021/09/09 01:19:25;;;;;;;21.30;19.90;;;17.60;99.90;;;;;;5033396;28;20464;-66
2021/09/09 01:21:52;;;;;;;20.43;18.93;;;17.60;99.90;;;;;;5032969;28;21157;-66
2021/09/09 01:24:21;;;;;;;21.57;19.93;;;17.50;99.90;;;;;;5033151;28;20815;-66
2021/09/09 01:26:52;;;;;;;20.57;19.10;;;17.50;99.90;;;;;;5049906;28;20440;-62
2021/09/09 01:29:20;;;;;;;20.40;19.07;;;17.40;99.90;;;;;;5052979;28;20451;-63
2021/09/09 01:31:48;;;;;;;20.57;19.13;;;17.40;99.90;;;;;;5052163;28;20484;-65
2021/09/09 01:34:14;;;;;;;21.83;20.43;;;17.40;99.90;;;;;;5052957;28;20945;-62
2021/09/09 01:36:41;;;;;;;22.33;20.50;;;17.40;99.90;;;;;;5052386;28;20452;-63
2021/09/09 01:39:08;;;;;;;21.70;20.20;;;17.40;99.90;;;;;;5052912;28;20440;-63
2021/09/09 01:41:36;;;;;;;22.10;20.40;;;17.30;99.90;;;;;;5052756;28;20541;-62
2021/09/09 01:44:03;;;;;;;22.07;20.53;;;17.30;99.90;;;;;;5052947;28;20440;-62
2021/09/09 01:46:30;;;;;;;21.13;19.57;;;17.40;99.90;;;;;;5052884;28;20444;-65
2021/09/09 01:48:58;;;;;;;20.37;19.07;;;17.30;99.90;;;;;;5052376;28;20448;-63
2021/09/09 01:51:26;;;;;;;20.40;19.20;;;17.30;99.90;;;;;;5052408;28;20491;-62
2021/09/09 01:53:53;;;;;;;22.43;20.73;;;17.30;99.90;;;;;;5052708;28;20443;-62
2021/09/09 01:56:19;;;;;;;21.60;20.17;;;17.30;99.90;;;;;;5052771;28;20444;-62
2021/09/09 01:58:48;;;;;;;21.33;19.80;;;17.30;99.90;;;;;;5052519;28;20830;-63
2021/09/09 02:01:15;;;;;;;20.57;19.17;;;17.20;99.90;;;;;;5052168;28;20443;-63
2021/09/09 02:03:41;;;;;;;20.23;18.93;;;17.20;99.90;;;;;;5052515;28;20855;-62
2021/09/09 02:06:08;;;;;;;22.70;21.20;;;17.20;99.90;;;;;;5052220;28;20444;-62
2021/09/09 02:08:35;;;;;;;21.23;19.80;;;17.20;99.90;;;;;;5052101;28;20452;-63
2021/09/09 02:11:01;;;;;;;22.00;20.60;;;17.20;99.90;;;;;;5052043;28;20483;-62
2021/09/09 02:13:28;;;;;;;22.20;20.70;;;17.20;99.90;;;;;;5052445;28;20814;-62
2021/09/09 02:15:56;;;;;;;22.60;21.10;;;17.20;99.90;;;;;;5052416;28;20451;-63
2021/09/09 02:18:23;;;;;;;22.77;21.20;;;17.10;99.90;;;;;;5052072;28;20463;-64
2021/09/09 02:20:50;;;;;;;20.90;19.60;;;17.10;99.90;;;;;;5052228;28;20444;-63
2021/09/09 02:23:17;;;;;;;22.07;20.50;;;17.10;99.90;;;;;;5051898;28;20467;-62
2021/09/09 02:25:43;;;;;;;21.80;20.20;;;17.10;99.90;;;;;;5052232;28;20448;-64
2021/09/09 02:28:10;;;;;;;23.20;21.60;;;17.10;99.90;;;;;;5052589;28;20436;-63
2021/09/09 02:30:37;;;;;;;21.30;20.00;;;17.10;99.90;;;;;;5052250;28;20448;-61
2021/09/09 02:33:05;;;;;;;22.53;20.53;;;17.20;99.90;;;;;;5051607;28;20491;-62
2021/09/09 02:35:32;;;;;;;21.57;20.30;;;17.20;99.90;;;;;;5052054;28;20440;-64
2021/09/09 02:37:58;;;;;;;21.37;20.00;;;17.10;99.90;;;;;;5051572;28;20440;-59
2021/09/09 02:40:25;;;;;;;22.73;21.33;;;17.10;99.90;;;;;;5052062;28;20436;-61
2021/09/09 02:42:52;;;;;;;22.93;21.43;;;17.10;99.90;;;;;;5051634;28;20795;-61
2021/09/09 02:45:18;;;;;;;22.00;20.50;;;17.00;99.90;;;;;;5051914;28;20441;-61
2021/09/09 02:47:45;;;;;;;21.53;20.23;;;17.00;99.90;;;;;;5051572;28;20945;-61
2021/09/09 02:50:14;;;;;;;21.50;20.10;;;17.00;99.90;;;;;;5051747;28;20975;-64
2021/09/09 02:52:41;;;;;;;21.00;19.70;;;17.00;99.90;;;;;;5051365;28;20488;-63
2021/09/09 02:55:09;;;;;;;20.77;19.47;;;17.00;99.90;;;;;;5051682;28;20455;-61
2021/09/09 02:57:36;;;;;;;23.47;21.70;;;17.00;99.90;;;;;;5051501;28;20448;-61
2021/09/09 03:00:03;;;;;;;21.83;20.33;;;16.90;99.90;;;;;;5051599;28;20460;-64
2021/09/09 03:02:29;;;;;;;20.97;19.47;;;16.90;99.90;;;;;;5051412;28;20460;-62
2021/09/09 03:04:56;;;;;;;22.03;20.63;;;16.80;99.90;;;;;;5051512;28;20448;-62
2021/09/09 03:07:24;;;;;;;24.90;22.97;;;16.80;99.90;;;;;;5051385;28;20460;-64
2021/09/09 03:09:51;;;;;;;23.73;22.00;;;16.80;99.90;;;;;;5051488;28;20444;-63
2021/09/09 03:12:18;;;;;;;23.10;21.27;;;16.80;99.90;;;;;;5051071;28;20494;-62
2021/09/09 03:14:44;;;;;;;22.80;21.10;;;16.70;99.90;;;;;;5051475;28;20478;-60
2021/09/09 03:17:11;;;;;;;23.37;21.67;;;16.70;99.90;;;;;;5051177;28;20440;-66
2021/09/09 03:19:38;;;;;;;22.03;20.50;;;16.70;99.90;;;;;;5040773;28;20447;-62
2021/09/09 03:22:06;;;;;;;21.90;20.30;;;16.60;99.90;;;;;;5055291;28;20460;-61
2021/09/09 03:24:34;;;;;;;21.87;20.47;;;16.60;99.90;;;;;;5055556;28;20447;-62
2021/09/09 03:27:01;;;;;;;23.43;21.83;;;16.60;99.90;;;;;;5055736;28;20450;-62
2021/09/09 03:29:27;;;;;;;21.70;20.30;;;16.60;99.90;;;;;;5055186;28;20448;-63
2021/09/09 03:31:54;;;;;;;22.47;20.83;;;16.60;99.90;;;;;;5055074;28;20479;-62
2021/09/09 03:34:21;;;;;;;23.30;21.40;;;16.60;99.90;;;;;;5055350;28;21051;-63
2021/09/09 03:36:47;;;;;;;23.37;21.77;;;16.60;99.90;;;;;;5055358;28;20821;-62
2021/09/09 03:39:14;;;;;;;23.00;21.40;;;16.50;99.90;;;;;;5055074;28;20448;-64
2021/09/09 03:41:42;;;;;;;22.73;21.13;;;16.50;99.90;;;;;;5054948;28;20463;-62
2021/09/09 03:44:09;;;;;;;22.50;20.73;;;16.50;99.90;;;;;;5055132;28;20798;-62
2021/09/09 03:46:35;;;;;;;23.80;22.20;;;16.50;99.90;;;;;;5054994;28;20456;-62
2021/09/09 03:49:02;;;;;;;23.23;21.70;;;16.40;99.90;;;;;;5055188;28;20444;-62
2021/09/09 03:51:29;;;;;;;23.60;21.70;;;16.40;99.90;;;;;;5054703;28;20480;-63
2021/09/09 03:53:56;;;;;;;22.67;21.27;;;16.30;99.90;;;;;;5054749;28;20449;-62
2021/09/09 03:56:22;;;;;;;23.93;22.10;;;16.30;99.90;;;;;;5051165;28;20451;-61
2021/09/09 03:58:50;;;;;;;24.40;22.60;;;16.30;99.90;;;;;;5054989;28;20451;-63
2021/09/09 04:01:17;;;;;;;24.07;22.00;;;16.30;99.90;;;;;;5054610;28;20472;-65
2021/09/09 04:03:46;;;;;;;23.83;22.13;;;16.20;99.90;;;;;;5054851;28;20463;-62
2021/09/09 04:06:13;;;;;;;23.90;22.20;;;16.20;99.90;;;;;;5054541;28;20535;-63
2021/09/09 04:08:39;;;;;;;24.53;22.53;;;16.10;99.90;;;;;;5055622;28;20444;-65
2021/09/09 04:11:06;;;;;;;23.80;22.17;;;16.10;99.90;;;;;;5054399;28;20444;-60
2021/09/09 04:13:33;;;;;;;21.83;20.33;;;16.10;99.90;;;;;;5054971;28;20486;-66
2021/09/09 04:16:01;;;;;;;22.63;20.93;;;16.10;99.90;;;;;;5054219;28;20440;-65
2021/09/09 04:18:28;;;;;;;25.50;23.73;;;16.10;99.90;;;;;;5054449;28;20452;-65
2021/09/09 04:20:55;;;;;;;23.70;21.67;;;16.10;99.90;;;;;;5054495;28;20455;-66
2021/09/09 04:23:21;;;;;;;22.97;20.97;;;16.10;99.90;;;;;;5054347;28;20467;-66
2021/09/09 04:25:48;;;;;;;24.43;22.63;;;16.10;99.90;;;;;;5054029;28;20455;-64
2021/09/09 04:28:14;;;;;;;25.03;23.13;;;16.00;99.90;;;;;;5054320;28;20448;-66
2021/09/09 04:30:41;;;;;;;24.50;22.63;;;16.00;99.90;;;;;;5054392;28;20964;-66
2021/09/09 04:33:09;;;;;;;23.77;22.10;;;16.00;99.90;;;;;;5053896;28;20480;-67
2021/09/09 04:35:36;;;;;;;24.47;22.67;;;16.00;99.90;;;;;;5054193;28;20452;-67
2021/09/09 04:38:03;;;;;;;25.03;23.10;;;16.00;99.90;;;;;;5054208;28;20447;-66
2021/09/09 04:40:30;;;;;;;23.10;21.30;;;16.00;99.90;;;;;;5054185;28;20444;-67
2021/09/09 04:42:57;;;;;;;25.37;23.50;;;16.00;99.90;;;;;;5053832;28;20491;-65
2021/09/09 04:45:25;;;;;;;23.70;22.00;;;16.00;99.90;;;;;;5053730;28;20448;-67
2021/09/09 04:47:52;;;;;;;23.70;22.00;;;16.00;99.90;;;;;;5054028;28;20448;-65
2021/09/09 04:50:20;;;;;;;22.90;21.27;;;16.10;99.90;;;;;;5054134;28;20459;-65
2021/09/09 04:52:46;;;;;;;23.57;21.87;;;16.10;99.90;;;;;;5053028;28;20481;-66
2021/09/09 04:55:13;;;;;;;23.10;21.60;;;16.10;99.90;;;;;;5053878;28;20447;-65
2021/09/09 04:57:40;;;;;;;24.43;22.53;;;16.10;99.90;;;;;;5053795;28;20448;-65
2021/09/09 05:00:08;;;;;;;24.87;23.20;;;16.10;99.90;;;;;;5053759;28;20850;-66
2021/09/09 05:02:35;;;;;;;24.73;22.93;;;16.10;99.90;;;;;;5053262;28;20993;-66
2021/09/09 05:05:01;;;;;;;23.63;21.63;;;16.10;99.90;;;;;;5053619;28;20451;-64
2021/09/09 05:07:30;;;;;;;24.70;22.70;;;16.10;99.90;;;;;;5053594;28;20445;-65
2021/09/09 05:09:56;;;;;;;26.83;22.67;;;16.20;99.90;;;;;;5053582;28;20447;-65
2021/09/09 05:12:23;;;;;;;23.80;21.90;;;16.20;99.90;;;;;;5053118;28;20488;-66
2021/09/09 05:14:50;;;;;;;26.67;24.37;;;16.20;99.90;;;;;;5053520;28;20452;-65
2021/09/09 05:17:16;;;;;;;24.20;22.50;;;16.20;99.90;;;;;;5053489;28;20448;-65
2021/09/09 05:19:43;;;;;;;23.73;22.00;;;16.30;99.90;;;;;;5053372;28;20445;-66
2021/09/09 05:22:10;;;;;;;23.63;22.10;;;16.30;99.90;;;;;;5053063;28;20463;-65
2021/09/09 05:24:38;;;;;;;24.13;22.53;;;16.30;99.90;;;;;;5053283;28;20448;-65
2021/09/09 05:27:05;;;;;;;25.53;23.73;;;16.40;99.90;;;;;;5053266;28;20452;-62
2021/09/09 05:29:31;;;;;;;25.10;23.30;;;16.40;99.90;;;;;;5053142;28;20458;-65
2021/09/09 05:31:58;;;;;;;25.23;23.40;;;16.50;99.90;;;;;;5052639;28;20467;-66
2021/09/09 05:34:25;;;;;;;21.17;19.77;;;16.50;99.90;;;;;;5053006;28;20956;-64
2021/09/09 05:36:51;;;;;;;23.70;22.17;;;16.60;99.90;;;;;;5053083;28;21018;-65
2021/09/09 05:39:18;;;;;;;24.73;22.93;;;16.60;99.90;;;;;;5053014;28;20449;-65
2021/09/09 05:41:46;;;;;;;24.40;22.80;;;16.70;99.90;;;;;;5052215;28;21009;-66
2021/09/09 05:44:13;;;;;;;23.23;21.53;;;16.80;99.90;;;;;;5052959;28;20444;-67
2021/09/09 05:46:39;;;;;;;26.60;24.20;;;16.80;99.90;;;;;;5052352;28;20448;-65
2021/09/09 05:49:06;;;;;;;23.63;21.70;;;16.90;99.90;;;;;;5052814;28;20448;-65
2021/09/09 05:51:33;;;;;;;24.40;22.60;;;16.90;99.90;;;;;;5052243;28;20487;-67
2021/09/09 05:54:00;;;;;;;25.20;23.43;;;17.00;99.90;;;;;;5052874;28;20479;-64
2021/09/09 05:56:26;;;;;;;25.47;23.67;;;17.10;99.90;;;;;;5052582;28;20448;-65
2021/09/09 05:58:54;;;;;;;25.23;23.43;;;17.10;99.90;;;;;;5052803;28;20447;-67
2021/09/09 06:01:21;;;;;;;23.77;22.20;;;17.20;99.90;;;;;;5052302;28;20464;-65
2021/09/09 06:03:48;;;;;;;24.70;23.10;;;17.30;99.90;;;;;;5052516;28;20447;-64
2021/09/09 06:06:15;;;;;;;25.30;23.57;;;17.40;99.90;;;;;;5052525;28;20515;-66
2021/09/09 06:08:44;;;;;;;24.80;23.20;;;17.40;99.90;;;;;;5052494;28;20901;-65
2021/09/09 06:11:11;;;;;;;23.70;22.30;;;17.50;99.90;;;;;;5051994;28;20447;-65
2021/09/09 06:13:37;;;;;;;24.27;22.77;;;17.50;99.90;;;;;;5052205;28;20476;-66
2021/09/09 06:16:06;;;;;;;25.73;23.73;;;17.70;99.90;;;;;;5052277;28;20447;-66
2021/09/09 06:18:33;;;;;;;24.40;22.80;;;17.70;99.90;;;;;;5052205;28;20801;-66
2021/09/09 06:21:00;;;;;;;23.60;22.10;;;17.80;99.90;;;;;;5051762;28;20801;-67
2021/09/09 06:23:27;;;;;;;23.60;22.10;;;17.90;99.90;;;;;;5052013;28;20463;-65
2021/09/09 06:25:53;;;;;;;25.57;23.37;;;18.00;99.90;;;;;;5052067;28;20954;-67
2021/09/09 06:28:20;;;;;;;24.33;22.40;;;18.10;99.90;;;;;;5051996;28;20451;-67
2021/09/09 06:30:47;;;;;;;24.97;23.37;;;18.20;99.90;;;;;;5051988;28;20904;-64
2021/09/09 06:33:15;;;;;;;23.50;22.00;;;18.30;99.90;;;;;;5051580;28;20491;-66
2021/09/09 06:35:43;;;;;;;24.33;22.87;;;18.40;99.90;;;;;;5052014;28;20444;-66
2021/09/09 06:38:10;;;;;;;24.50;22.30;;;18.50;99.90;;;;;;5051941;28;21004;-67
2021/09/09 06:40:36;;;;;;;24.43;22.90;;;18.50;99.90;;;;;;5051929;28;20451;-66
2021/09/09 06:43:03;;;;;;;22.90;21.30;;;18.60;99.90;;;;;;5051497;28;21171;-66
2021/09/09 06:45:30;;;;;;;22.77;21.17;;;18.70;99.90;;;;;;5051815;28;20440;-65
2021/09/09 06:47:57;;;;;;;23.40;21.70;;;18.80;99.90;;;;;;5051918;28;20445;-66
2021/09/09 06:50:25;;;;;;;23.43;22.03;;;18.80;99.90;;;;;;5051933;28;20515;-66
2021/09/09 06:52:51;;;;;;;23.00;21.40;;;18.90;99.90;;;;;;5050545;28;20718;-67
2021/09/09 06:55:18;;;;;;;23.73;22.23;;;19.00;99.90;;;;;;5051757;28;20448;-65
2021/09/09 06:57:45;;;;;;;23.97;22.37;;;19.10;99.90;;;;;;5051642;28;20451;-66
2021/09/09 07:00:12;;;;;;;23.77;22.13;;;19.20;99.90;;;;;;5051624;28;20455;-65
2021/09/09 07:02:39;;;;;;;25.37;23.70;;;19.30;99.90;;;;;;5051343;28;20483;-66
2021/09/09 07:05:06;;;;;;;24.13;22.53;;;19.40;99.90;;;;;;5051489;28;20444;-66
2021/09/09 07:07:34;;;;;;;25.53;23.70;;;19.40;99.90;;;;;;5051617;28;20794;-65
2021/09/09 07:10:01;;;;;;;25.20;23.60;;;19.40;99.90;;;;;;5051539;28;20808;-65
2021/09/09 07:12:28;;;;;;;24.20;22.60;;;19.50;99.90;;;;;;5050942;28;20475;-66
2021/09/09 07:14:54;;;;;;;24.37;22.83;;;19.70;99.90;;;;;;5051297;28;20463;-66
2021/09/09 07:17:21;;;;;;;25.03;23.40;;;19.80;99.90;;;;;;5051533;28;20448;-65
2021/09/09 07:19:48;;;;;;;25.30;23.20;;;19.80;99.90;;;;;;5051438;28;20479;-66
2021/09/09 07:22:14;;;;;;;25.90;24.20;;;19.90;99.90;;;;;;5051147;28;20464;-66
2021/09/09 07:24:42;;;;;;;24.80;22.70;;;20.10;99.90;;;;;;5051199;28;20455;-66
2021/09/09 07:27:09;;;;;;;24.63;22.80;;;20.20;99.90;;;;;;5051335;28;20440;-66
2021/09/09 07:29:36;;;;;;;23.33;21.93;;;20.30;99.90;;;;;;5051243;28;20452;-65
2021/09/09 07:32:02;;;;;;;25.10;23.50;;;20.40;99.90;;;;;;5051121;28;20814;-66
2021/09/09 07:34:29;;;;;;;23.60;22.20;;;20.50;99.90;;;;;;5051163;28;20480;-66
2021/09/09 07:36:56;;;;;;;24.17;22.70;;;20.60;99.90;;;;;;5051292;28;20810;-65
2021/09/09 07:39:23;;;;;;;24.53;22.93;;;20.70;99.90;;;;;;5051328;28;20447;-66
2021/09/09 07:41:51;;;;;;;24.20;22.63;;;20.70;99.90;;;;;;5050809;28;20468;-67
2021/09/09 07:44:18;;;;;;;24.97;23.20;;;20.80;99.90;;;;;;5051153;28;20447;-67
2021/09/09 07:46:44;;;;;;;22.90;21.30;;;20.90;99.90;;;;;;5051153;28;20444;-65
2021/09/09 07:49:15;;;;;;;23.50;22.17;;;21.00;99.90;;;;;;5051233;28;20814;-67
2021/09/09 07:51:42;;;;;;;22.13;20.73;;;21.10;99.90;;;;;;5050905;28;20487;-67
2021/09/09 07:54:08;;;;;;;23.23;21.70;;;21.20;99.90;;;;;;5051077;28;20479;-65
2021/09/09 07:56:35;;;;;;;25.70;23.90;;;21.30;99.90;;;;;;5051002;28;20444;-65
2021/09/09 07:59:03;;;;;;;24.30;22.80;;;21.40;99.90;;;;;;5051205;28;20451;-67
2021/09/09 08:01:30;;;;;;;22.60;21.30;;;21.50;99.90;;;;;;5050776;28;20460;-67
2021/09/09 08:03:56;;;;;;;25.80;24.03;;;21.50;99.90;;;;;;5052190;28;20444;-66
2021/09/09 08:06:23;;;;;;;23.57;22.17;;;21.70;99.90;;;;;;5054922;28;20444;-66
2021/09/09 08:08:50;;;;;;;21.70;20.50;;;21.70;99.90;;;;;;5054673;28;20956;-67
2021/09/09 08:11:16;;;;;;;23.60;22.20;;;21.80;99.90;;;;;;5054938;28;20797;-66
2021/09/09 08:13:43;;;;;;;23.70;22.10;;;21.90;99.90;;;;;;5054644;28;20472;-64
2021/09/09 08:16:11;;;;;;;24.47;22.87;;;22.00;99.90;;;;;;5054703;28;20452;-66
2021/09/09 08:18:38;;;;;;;22.97;21.57;;;22.10;99.90;;;;;;5054500;28;20491;-66
2021/09/09 08:21:05;;;;;;;24.40;22.90;;;22.20;99.90;;;;;;5054455;28;20446;-66
2021/09/09 08:23:32;;;;;;;23.97;22.57;;;22.30;99.90;;;;;;5054486;28;20455;-67
2021/09/09 08:25:59;;;;;;;24.30;22.80;;;22.40;99.90;;;;;;5054507;28;20470;-66
2021/09/09 08:28:25;;;;;;;23.23;21.83;;;22.50;99.90;;;;;;5054439;28;20566;-63
2021/09/09 08:30:52;;;;;;;24.10;22.50;;;22.70;99.90;;;;;;5054388;28;20446;-65
2021/09/09 08:33:20;;;;;;;23.00;21.70;;;22.80;99.90;;;;;;5054038;28;20487;-67
2021/09/09 08:35:47;;;;;;;23.33;22.10;;;22.90;99.90;;;;;;5054289;28;20793;-66
2021/09/09 08:38:14;;;;;;;23.70;22.27;;;22.90;99.90;;;;;;5054435;28;20451;-67
2021/09/09 08:40:41;;;;;;;23.63;22.20;;;23.00;99.90;;;;;;5054025;28;20448;-65
2021/09/09 08:43:08;;;;;;;23.73;22.33;;;23.20;99.90;;;;;;5053731;28;20460;-68
2021/09/09 08:45:36;;;;;;;24.57;23.07;;;23.20;99.90;;;;;;5054118;28;20456;-66
2021/09/09 08:48:05;;;;;;;25.67;24.03;;;23.40;99.90;;;;;;5054090;28;21107;-67
2021/09/09 08:50:34;;;;;;;24.73;23.23;;;23.50;99.90;;;;;;5054043;28;20445;-67
2021/09/09 08:53:02;;;;;;;25.77;24.03;;;23.60;99.90;;;;;;5053941;28;20827;-65
2021/09/09 08:55:29;;;;;;;26.53;24.80;;;23.70;99.90;;;;;;5053858;28;20498;-64
2021/09/09 08:57:57;;;;;;;25.97;24.57;;;23.80;99.90;;;;;;5053827;28;20447;-64
2021/09/09 09:00:24;;;;;;;26.97;25.37;;;23.90;99.90;;;;;;5053701;28;21020;-65
2021/09/09 09:02:52;;;;;;;28.27;26.57;;;24.00;99.90;;;;;;5053520;28;20468;-67
2021/09/09 09:05:19;;;;;;;26.77;25.07;;;24.00;99.90;;;;;;5053746;28;20447;-65
2021/09/09 09:07:57;;;;;;;28.63;26.73;;;24.10;99.90;;;;;;5053893;28;20452;-63
2021/09/09 09:10:23;;;;;;;27.57;25.87;;;24.20;99.90;;;;;;5053561;28;20440;-63
2021/09/09 09:12:50;;;;;;;26.23;24.50;;;24.40;99.90;;;;;;5053134;28;20476;-65
2021/09/09 09:15:19;;;;;;;29.00;27.30;;;24.50;99.90;;;;;;5052514;28;20476;-65
2021/09/09 09:17:57;;;;;;;29.53;27.50;;;24.60;99.90;;;;;;5053400;28;20972;-67
2021/09/09 09:20:26;;;;;;;27.73;26.00;;;24.60;99.90;;;;;;5053463;28;20480;-65
2021/09/09 09:22:55;;;;;;;26.43;24.83;;;24.70;99.90;;;;;;5052920;28;20539;-64
2021/09/09 09:25:52;;;;;;;28.13;26.20;;;24.80;99.90;;;;;;5053384;28;20443;-66
2021/09/09 09:28:40;;;;;;;26.37;24.57;;;24.90;99.90;;;;;;5053029;28;20444;-67
2021/09/09 09:31:09;;;;;;;25.17;23.63;;;25.00;99.90;;;;;;5052968;28;20846;-65
2021/09/09 09:33:38;;;;;;;25.87;24.47;;;25.10;99.90;;;;;;5053010;28;20490;-64
2021/09/09 09:36:20;;;;;;;26.70;25.00;;;25.30;99.90;;;;;;5052812;28;20925;-64
2021/09/09 09:38:50;;;;;;;27.33;25.83;;;25.40;99.90;;;;;;5053088;28;20526;-64
2021/09/09 09:41:19;;;;;;;27.60;26.00;;;25.50;99.60;;;;;;5052618;28;20452;-65
2021/09/09 09:43:57;;;;;;;25.87;24.07;;;25.60;99.60;;;;;;5053026;28;20484;-63
2021/09/09 09:46:30;;;;;;;24.27;22.73;;;25.70;99.20;;;;;;5052993;28;20448;-64
2021/09/09 09:49:15;;;;;;;26.70;24.80;;;25.80;99.00;;;;;;5053012;28;20455;-65
2021/09/09 09:51:43;;;;;;;23.97;22.67;;;25.90;98.70;;;;;;5052609;28;20468;-65
2021/09/09 09:54:13;;;;;;;24.40;23.00;;;26.00;98.60;;;;;;5052888;28;20494;-64
2021/09/09 09:56:41;;;;;;;24.30;22.70;;;26.20;97.80;;;;;;5052610;28;20448;-65
2021/09/09 09:59:08;;;;;;;24.20;22.80;;;26.20;97.70;;;;;;5052727;28;20444;-63
2021/09/09 10:01:35;;;;;;;24.10;22.70;;;26.40;97.40;;;;;;5052333;28;20479;-64
2021/09/09 10:04:04;;;;;;;25.73;24.13;;;26.40;97.10;;;;;;5052595;28;20976;-64
2021/09/09 10:06:32;;;;;;;25.00;22.90;;;26.60;97.30;;;;;;5052589;28;20448;-65
2021/09/09 10:09:00;;;;;;;23.07;21.77;;;26.80;97.10;;;;;;5052625;28;20444;-64
2021/09/09 10:11:32;;;;;;;24.53;23.03;;;26.90;97.00;;;;;;5052455;28;20499;-65
2021/09/09 10:14:02;;;;;;;24.47;22.60;;;26.90;96.40;;;;;;5052003;28;20523;-61
2021/09/09 10:16:32;;;;;;;24.70;23.37;;;27.20;95.80;;;;;;5052394;28;20444;-61
2021/09/09 10:18:58;;;;;;;24.30;22.80;;;27.20;96.00;;;;;;5052376;28;20475;-64
2021/09/09 10:21:39;;;;;;;25.63;24.13;;;27.40;96.20;;;;;;5052114;28;20471;-62
2021/09/09 10:24:11;;;;;;;26.07;24.33;;;27.70;95.30;;;;;;5052267;28;20475;-61
2021/09/09 10:26:40;;;;;;;25.80;24.30;;;27.90;95.10;;;;;;5051996;28;20440;-63
2021/09/09 10:29:09;;;;;;;26.30;24.67;;;27.90;94.50;;;;;;5052172;28;20444;-58
2021/09/09 10:31:41;;;;;;;25.50;23.90;;;28.10;94.80;;;;;;5051771;28;20464;-60
2021/09/09 10:34:09;;;;;;;27.23;25.40;;;28.00;94.40;;;;;;5052004;28;20510;-65
2021/09/09 10:36:43;;;;;;;26.77;24.83;;;28.20;94.20;;;;;;5051971;28;20444;-62
2021/09/09 10:39:11;;;;;;;27.73;25.80;;;28.40;93.50;;;;;;5051885;28;20452;-62
2021/09/09 10:41:40;;;;;;;26.10;24.40;;;28.60;93.20;;;;;;5051588;28;20464;-62
2021/09/09 10:44:09;;;;;;;26.07;24.47;;;28.50;93.80;;;;;;5051916;28;20432;-62
2021/09/09 10:46:38;;;;;;;27.30;25.77;;;28.70;93.40;;;;;;5051795;28;20929;-63
2021/09/09 10:49:26;;;;;;;24.90;23.30;;;29.00;93.00;;;;;;5051883;28;20807;-61
2021/09/09 10:52:07;;;;;;;26.50;24.90;;;29.20;92.90;;;;;;5045364;28;20470;-61
2021/09/09 10:55:02;;;;;;;28.60;26.80;;;29.60;92.30;;;;;;5051870;28;20471;-62
2021/09/09 10:57:31;;;;;;;27.03;25.53;;;30.00;90.90;;;;;;5051698;28;20451;-62
2021/09/09 10:59:58;;;;;;;28.10;26.43;;;30.20;89.20;;;;;;5051642;28;20448;-62
2021/09/09 11:02:25;;;;;;;28.33;26.30;;;30.60;89.20;;;;;;5051374;28;20537;-62
2021/09/09 11:04:51;;;;;;;28.13;26.57;;;30.70;85.80;;;;;;5051441;28;20444;-62
2021/09/09 11:07:26;;;;;;;27.40;25.70;;;31.10;84.80;;;;;;5051569;28;20996;-61
2021/09/09 11:10:06;;;;;;;30.10;28.37;;;31.20;83.10;;;;;;5051404;28;20869;-60
2021/09/09 11:12:39;;;;;;;27.93;26.43;;;31.70;80.80;;;;;;5051135;28;20468;-63
2021/09/09 11:15:07;;;;;;;27.77;26.17;;;32.20;78.40;;;;;;5051493;28;20502;-62
2021/09/09 11:17:35;;;;;;;29.40;27.60;;;32.50;76.70;;;;;;5051651;28;20463;-62
2021/09/09 11:20:07;;;;;;;26.70;25.43;;;33.20;72.00;;;;;;5051514;28;20446;-62
2021/09/09 11:22:34;;;;;;;26.33;24.83;;;34.00;68.30;;;;;;5051109;28;20471;-63
2021/09/09 11:25:01;;;;;;;27.73;26.23;;;33.90;64.50;;;;;;5051263;28;20216;-61
2021/09/09 11:27:30;;;;;;;28.90;26.90;;;33.80;63.30;;;;;;5051491;28;20443;-61
2021/09/09 11:30:00;;;;;;;26.70;25.30;;;33.90;62.60;;;;;;5051373;28;20483;-62
2021/09/09 11:32:27;;;;;;;28.87;26.90;;;34.00;61.30;;;;;;5051351;28;20468;-62
2021/09/09 11:35:05;;;;;;;29.43;28.03;;;34.60;61.50;;;;;;5051308;28;20479;-63
2021/09/09 11:37:42;;;;;;;28.20;26.50;;;36.50;57.00;;;;;;5051495;28;20450;-62
2021/09/09 11:40:10;;;;;;;28.25;26.80;;;36.40;55.20;;;;;;5054530;28;20215;-63
2021/09/09 11:42:37;;;;;;;29.27;27.77;;;37.90;52.90;;;;;;5054925;28;20712;-62
2021/09/09 11:45:06;;;;;;;29.20;27.67;;;39.70;48.60;;;;;;5055278;28;20284;-61
2021/09/09 11:47:33;;;;;;;30.05;28.20;;;40.40;45.80;;;;;;5055244;28;20205;-63
2021/09/09 11:50:00;;;;;;;28.58;27.08;;;39.80;44.10;;;;;;5055195;28;20203;-61
2021/09/09 11:52:27;;;;;;;28.00;26.63;;;39.00;44.70;;;;;;5054796;28;20224;-62
2021/09/09 11:54:54;;;;;;;28.00;26.40;;;38.20;45.80;;;;;;5055039;28;20231;-62
2021/09/09 11:57:20;;;;;;;28.77;27.38;;;38.30;46.80;;;;;;5055032;28;20205;-63
2021/09/09 11:59:50;;;;;;;29.15;27.40;;;38.20;46.00;;;;;;5054948;28;20201;-62
2021/09/09 12:02:20;;;;;;;28.65;27.05;;;38.30;46.40;;;;;;5054437;28;20225;-61
2021/09/09 12:04:47;;;;;;;26.48;24.88;;;38.10;46.50;;;;;;5054819;28;20209;-62
2021/09/09 12:07:18;;;;;;;27.85;26.25;;;36.60;48.20;;;;;;5054713;28;20197;-61
2021/09/09 12:09:54;;;;;;;27.15;25.75;;;35.40;50.00;;;;;;5054864;28;20251;-62
2021/09/09 12:12:21;;;;;;;25.80;24.60;;;34.70;51.90;;;;;;5054590;28;20306;-61
2021/09/09 12:14:58;;;;;;;26.40;24.07;;;33.90;53.50;;;;;;5054667;28;20229;-63
2021/09/09 12:17:27;;;;;;;27.60;25.80;;;33.50;54.30;;;;;;5054870;28;20522;-62
2021/09/09 12:20:01;;;;;;;26.63;25.30;;;33.20;55.80;;;;;;5054499;28;20443;-62
2021/09/09 12:22:49;;;;;;;26.00;24.60;;;33.10;56.10;;;;;;5054315;28;20479;-62
2021/09/09 12:25:23;;;;;;;25.47;24.00;;;33.40;57.40;;;;;;5054375;28;20446;-64
2021/09/09 12:28:04;;;;;;;25.70;24.23;;;34.30;55.60;;;;;;5054528;28;20956;-62
2021/09/09 12:30:32;;;;;;;24.67;23.27;;;35.20;54.00;;;;;;5054473;28;20443;-61
2021/09/09 12:33:03;;;;;;;24.20;23.00;;;35.50;53.50;;;;;;5054087;28;20225;-63